aviador You're here:

PKWA Decoded Metar

KWAJALEIN in MARSHALL ISLANDS
Report Time2017-09-20 13:00:00
UTC Time2017-09-20 13:02:07
Flight Rules vfr VFR
Wind080° at 14 kt
W.Decomp.*RWY 06: 13.7 kt HW 2.7 kt RCW
W.Rank080° ranks 3
Current wind is above 080° avg. (12.5)
Visibility9999 m
Phenomena:N/A
Clouds:N/A
Expected CloudBase > 1,200 ft AGL from Temp-Dew spread
CeilingNone
Temp28°C (ISA +13)
Dew Point25°C (84% RH)
Heat Index32.7°C
QNH1009 hPa
Density Alt2,077 ft
Elevation26 ft
Report Wrong Elevation
Raw Report
METAR PKWA 201300Z AUTO 08014KT 10SM CLR 28/25 A2980 RMK AO2 LTG DSNT SW T02800249=

Extra information for PKWA:More info

Metar Taf Metar & Taf Last 4 Metars F.Rules Stats Wind Profile Meteogram Temp Stats Airport Information Weather charts Add Link Nearby VenuesMetar ALERT Operation Metar Decoded Social comments